sensor_id;sensor_type;location;lat;lon;timestamp;pressure;altitude;pressure_sealevel;temperature;humidity
17635;BME280;8936;49.010;12.120;2022-09-27T00:01:50;96309.41;;;13.05;100.00
17635;BME280;8936;49.010;12.120;2022-09-27T00:04:17;96299.16;;;12.98;100.00
17635;BME280;8936;49.010;12.120;2022-09-27T00:06:43;96301.38;;;13.05;100.00
17635;BME280;8936;49.010;12.120;2022-09-27T00:09:09;96295.84;;;13.01;100.00
17635;BME280;8936;49.010;12.120;2022-09-27T00:11:36;96299.97;;;13.16;100.00
17635;BME280;8936;49.010;12.120;2022-09-27T00:14:03;96301.13;;;13.61;100.00
17635;BME280;8936;49.010;12.120;2022-09-27T00:16:31;96292.84;;;14.42;100.00
17635;BME280;8936;49.010;12.120;2022-09-27T00:18:59;96284.03;;;14.03;100.00
17635;BME280;8936;49.010;12.120;2022-09-27T00:21:27;96287.47;;;13.75;100.00
17635;BME280;8936;49.010;12.120;2022-09-27T00:23:54;96273.50;;;13.61;100.00
17635;BME280;8936;49.010;12.120;2022-09-27T00:26:21;96278.28;;;13.84;100.00
17635;BME280;8936;49.010;12.120;2022-09-27T00:28:47;96270.69;;;13.57;100.00
17635;BME280;8936;49.010;12.120;2022-09-27T00:31:17;96274.75;;;13.63;100.00
17635;BME280;8936;49.010;12.120;2022-09-27T00:33:45;96262.34;;;13.50;100.00
17635;BME280;8936;49.010;12.120;2022-09-27T00:36:14;96256.22;;;13.41;100.00
17635;BME280;8936;49.010;12.120;2022-09-27T00:38:40;96258.88;;;13.49;100.00
17635;BME280;8936;49.010;12.120;2022-09-27T00:41:08;96254.47;;;13.83;100.00
17635;BME280;8936;49.010;12.120;2022-09-27T00:43:42;96243.50;;;13.96;100.00
17635;BME280;8936;49.010;12.120;2022-09-27T00:46:08;96240.97;;;14.50;100.00
17635;BME280;8936;49.010;12.120;2022-09-27T00:48:35;96235.69;;;14.74;100.00
17635;BME280;8936;49.010;12.120;2022-09-27T00:51:02;96231.97;;;14.99;100.00
17635;BME280;8936;49.010;12.120;2022-09-27T00:53:32;96228.88;;;15.09;100.00
17635;BME280;8936;49.010;12.120;2022-09-27T00:56:02;96221.84;;;15.17;100.00
17635;BME280;8936;49.010;12.120;2022-09-27T00:58:29;96231.91;;;15.20;100.00
17635;BME280;8936;49.010;12.120;2022-09-27T01:00:59;96228.56;;;15.23;100.00
17635;BME280;8936;49.010;12.120;2022-09-27T01:03:29;96225.22;;;15.26;100.00
17635;BME280;8936;49.010;12.120;2022-09-27T01:05:57;96221.03;;;15.17;100.00
17635;BME280;8936;49.010;12.120;2022-09-27T01:08:24;96210.63;;;15.15;100.00
17635;BME280;8936;49.010;12.120;2022-09-27T01:10:54;96211.75;;;15.14;100.00
17635;BME280;8936;49.010;12.120;2022-09-27T01:13:26;96212.22;;;15.16;100.00
17635;BME280;8936;49.010;12.120;2022-09-27T01:15:56;96213.44;;;15.19;100.00
17635;BME280;8936;49.010;12.120;2022-09-27T01:18:29;96210.53;;;15.24;100.00
17635;BME280;8936;49.010;12.120;2022-09-27T01:21:02;96205.81;;;15.21;100.00
17635;BME280;8936;49.010;12.120;2022-09-27T01:26:30;96199.44;;;15.13;100.00
17635;BME280;8936;49.010;12.120;2022-09-27T01:29:01;96199.09;;;15.14;100.00
17635;BME280;8936;49.010;12.120;2022-09-27T01:31:31;96195.97;;;15.12;100.00
17635;BME280;8936;49.010;12.120;2022-09-27T01:34:00;96211.19;;;15.21;100.00
17635;BME280;8936;49.010;12.120;2022-09-27T01:36:30;96195.84;;;15.21;100.00
17635;BME280;8936;49.010;12.120;2022-09-27T01:39:06;96198.31;;;15.26;100.00
17635;BME280;8936;49.010;12.120;2022-09-27T01:41:35;96193.06;;;15.30;100.00
17635;BME280;8936;49.010;12.120;2022-09-27T01:44:05;96196.78;;;15.37;100.00
17635;BME280;8936;49.010;12.120;2022-09-27T01:46:35;96183.75;;;15.27;100.00
17635;BME280;8936;49.010;12.120;2022-09-27T01:49:07;96184.19;;;15.17;100.00
17635;BME280;8936;49.010;12.120;2022-09-27T01:51:36;96185.78;;;15.18;100.00
17635;BME280;8936;49.010;12.120;2022-09-27T01:54:05;96182.28;;;15.05;100.00
17635;BME280;8936;49.010;12.120;2022-09-27T01:56:33;96183.84;;;15.06;100.00
17635;BME280;8936;49.010;12.120;2022-09-27T01:59:02;96171.19;;;15.07;100.00
17635;BME280;8936;49.010;12.120;2022-09-27T02:01:31;96178.53;;;14.98;100.00
17635;BME280;8936;49.010;12.120;2022-09-27T02:04:01;96178.59;;;15.10;100.00
17635;BME280;8936;49.010;12.120;2022-09-27T02:06:29;96167.25;;;15.04;100.00
17635;BME280;8936;49.010;12.120;2022-09-27T02:08:57;96176.44;;;14.91;100.00
17635;BME280;8936;49.010;12.120;2022-09-27T02:11:24;96161.84;;;14.92;100.00
17635;BME280;8936;49.010;12.120;2022-09-27T02:13:52;96160.06;;;14.96;100.00
17635;BME280;8936;49.010;12.120;2022-09-27T02:16:21;96160.88;;;15.09;100.00
17635;BME280;8936;49.010;12.120;2022-09-27T02:18:50;96159.00;;;15.09;100.00
17635;BME280;8936;49.010;12.120;2022-09-27T02:21:20;96150.91;;;14.97;100.00
17635;BME280;8936;49.010;12.120;2022-09-27T02:23:51;96149.34;;;15.08;100.00
17635;BME280;8936;49.010;12.120;2022-09-27T02:26:21;96153.13;;;15.07;100.00
17635;BME280;8936;49.010;12.120;2022-09-27T02:28:50;96144.50;;;15.02;100.00
17635;BME280;8936;49.010;12.120;2022-09-27T02:31:22;96150.69;;;15.02;100.00
17635;BME280;8936;49.010;12.120;2022-09-27T02:33:49;96147.44;;;14.97;100.00
17635;BME280;8936;49.010;12.120;2022-09-27T02:36:17;96144.38;;;14.98;100.00
17635;BME280;8936;49.010;12.120;2022-09-27T02:38:45;96131.72;;;14.87;100.00
17635;BME280;8936;49.010;12.120;2022-09-27T02:41:13;96132.75;;;14.82;100.00
17635;BME280;8936;49.010;12.120;2022-09-27T02:43:39;96148.63;;;14.87;100.00
17635;BME280;8936;49.010;12.120;2022-09-27T02:46:10;96139.09;;;14.78;100.00
17635;BME280;8936;49.010;12.120;2022-09-27T02:48:43;96136.25;;;14.62;100.00
17635;BME280;8936;49.010;12.120;2022-09-27T02:51:15;96138.03;;;14.58;100.00
17635;BME280;8936;49.010;12.120;2022-09-27T02:53:51;96137.69;;;14.59;100.00
17635;BME280;8936;49.010;12.120;2022-09-27T02:56:22;96141.59;;;14.50;100.00
17635;BME280;8936;49.010;12.120;2022-09-27T02:58:53;96130.13;;;14.41;100.00
17635;BME280;8936;49.010;12.120;2022-09-27T03:01:24;96128.69;;;14.43;100.00
17635;BME280;8936;49.010;12.120;2022-09-27T03:03:54;96124.03;;;14.52;100.00
17635;BME280;8936;49.010;12.120;2022-09-27T03:06:24;96128.41;;;14.57;100.00
17635;BME280;8936;49.010;12.120;2022-09-27T03:08:52;96119.81;;;14.64;100.00
17635;BME280;8936;49.010;12.120;2022-09-27T03:11:18;96127.31;;;14.70;100.00
17635;BME280;8936;49.010;12.120;2022-09-27T03:13:44;96116.56;;;14.70;100.00
17635;BME280;8936;49.010;12.120;2022-09-27T03:16:11;96113.44;;;14.80;100.00
17635;BME280;8936;49.010;12.120;2022-09-27T03:18:37;96109.19;;;14.79;100.00
17635;BME280;8936;49.010;12.120;2022-09-27T03:21:04;96112.66;;;14.80;100.00
17635;BME280;8936;49.010;12.120;2022-09-27T03:23:30;96110.75;;;14.68;100.00
17635;BME280;8936;49.010;12.120;2022-09-27T03:25:58;96109.09;;;14.76;100.00
17635;BME280;8936;49.010;12.120;2022-09-27T03:28:24;96103.09;;;14.58;100.00
17635;BME280;8936;49.010;12.120;2022-09-27T03:30:53;96104.97;;;14.45;100.00
17635;BME280;8936;49.010;12.120;2022-09-27T03:33:20;96107.44;;;14.30;100.00
17635;BME280;8936;49.010;12.120;2022-09-27T03:35:46;96110.34;;;14.45;100.00
17635;BME280;8936;49.010;12.120;2022-09-27T03:38:13;96106.22;;;14.48;100.00
17635;BME280;8936;49.010;12.120;2022-09-27T03:40:39;96102.28;;;14.45;100.00
17635;BME280;8936;49.010;12.120;2022-09-27T03:43:07;96095.13;;;14.49;100.00
17635;BME280;8936;49.010;12.120;2022-09-27T03:45:33;96100.91;;;14.39;100.00
17635;BME280;8936;49.010;12.120;2022-09-27T03:47:59;96092.53;;;14.41;100.00
17635;BME280;8936;49.010;12.120;2022-09-27T03:50:26;96093.72;;;14.31;100.00
17635;BME280;8936;49.010;12.120;2022-09-27T03:52:52;96096.25;;;14.28;100.00
17635;BME280;8936;49.010;12.120;2022-09-27T03:55:19;96088.03;;;14.33;100.00
17635;BME280;8936;49.010;12.120;2022-09-27T03:57:45;96092.00;;;14.27;100.00
17635;BME280;8936;49.010;12.120;2022-09-27T04:00:13;96081.00;;;14.40;100.00
17635;BME280;8936;49.010;12.120;2022-09-27T04:02:40;96077.22;;;14.41;100.00
17635;BME280;8936;49.010;12.120;2022-09-27T04:05:07;96082.09;;;14.06;100.00
17635;BME280;8936;49.010;12.120;2022-09-27T04:07:33;96074.22;;;14.22;100.00
17635;BME280;8936;49.010;12.120;2022-09-27T04:09:59;96073.44;;;14.22;100.00
17635;BME280;8936;49.010;12.120;2022-09-27T04:12:26;96082.06;;;14.27;100.00
17635;BME280;8936;49.010;12.120;2022-09-27T04:14:52;96081.06;;;14.32;100.00
17635;BME280;8936;49.010;12.120;2022-09-27T04:17:20;96076.50;;;14.32;100.00
17635;BME280;8936;49.010;12.120;2022-09-27T04:19:47;96074.66;;;14.24;100.00
17635;BME280;8936;49.010;12.120;2022-09-27T04:22:13;96086.28;;;14.16;100.00
17635;BME280;8936;49.010;12.120;2022-09-27T04:24:40;96076.97;;;14.34;100.00
17635;BME280;8936;49.010;12.120;2022-09-27T04:27:06;96078.13;;;14.25;100.00
17635;BME280;8936;49.010;12.120;2022-09-27T04:29:32;96079.91;;;14.41;100.00
17635;BME280;8936;49.010;12.120;2022-09-27T04:31:59;96074.59;;;14.33;100.00
17635;BME280;8936;49.010;12.120;2022-09-27T04:34:27;96079.97;;;14.33;100.00
17635;BME280;8936;49.010;12.120;2022-09-27T04:37:07;96079.06;;;14.29;100.00
17635;BME280;8936;49.010;12.120;2022-09-27T04:39:35;96076.91;;;14.22;100.00
17635;BME280;8936;49.010;12.120;2022-09-27T04:42:03;96076.91;;;14.22;100.00
17635;BME280;8936;49.010;12.120;2022-09-27T04:44:30;96074.22;;;14.22;100.00
17635;BME280;8936;49.010;12.120;2022-09-27T04:46:56;96069.16;;;14.21;100.00
17635;BME280;8936;49.010;12.120;2022-09-27T04:49:22;96065.66;;;14.08;100.00
17635;BME280;8936;49.010;12.120;2022-09-27T04:51:50;96064.66;;;14.13;100.00
17635;BME280;8936;49.010;12.120;2022-09-27T04:54:16;96067.56;;;14.07;100.00
17635;BME280;8936;49.010;12.120;2022-09-27T04:56:43;96069.13;;;14.08;100.00
17635;BME280;8936;49.010;12.120;2022-09-27T04:59:09;96071.00;;;14.08;100.00
17635;BME280;8936;49.010;12.120;2022-09-27T05:01:36;96071.16;;;14.12;100.00
17635;BME280;8936;49.010;12.120;2022-09-27T05:04:02;96069.81;;;14.18;100.00
17635;BME280;8936;49.010;12.120;2022-09-27T05:06:28;96079.47;;;14.19;100.00
17635;BME280;8936;49.010;12.120;2022-09-27T05:08:56;96082.09;;;14.06;100.00
17635;BME280;8936;49.010;12.120;2022-09-27T05:11:23;96086.81;;;14.10;100.00
17635;BME280;8936;49.010;12.120;2022-09-27T05:13:50;96093.00;;;14.22;100.00
17635;BME280;8936;49.010;12.120;2022-09-27T05:16:16;96097.66;;;14.13;100.00
17635;BME280;8936;49.010;12.120;2022-09-27T05:18:44;96087.91;;;14.08;100.00
17635;BME280;8936;49.010;12.120;2022-09-27T05:21:10;96088.66;;;13.97;100.00
17635;BME280;8936;49.010;12.120;2022-09-27T05:23:36;96084.91;;;14.10;100.00
17635;BME280;8936;49.010;12.120;2022-09-27T05:26:04;96088.38;;;14.11;100.00
17635;BME280;8936;49.010;12.120;2022-09-27T05:28:31;96087.91;;;14.08;100.00
17635;BME280;8936;49.010;12.120;2022-09-27T05:30:59;96098.44;;;13.93;100.00
17635;BME280;8936;49.010;12.120;2022-09-27T05:33:25;96095.78;;;13.93;100.00
17635;BME280;8936;49.010;12.120;2022-09-27T05:35:52;96103.28;;;13.99;100.00
17635;BME280;8936;49.010;12.120;2022-09-27T05:38:18;96109.63;;;14.16;100.00
17635;BME280;8936;49.010;12.120;2022-09-27T05:40:45;96107.63;;;14.13;100.00
17635;BME280;8936;49.010;12.120;2022-09-27T05:43:15;96107.09;;;14.19;100.00
17635;BME280;8936;49.010;12.120;2022-09-27T05:45:42;96101.28;;;14.17;100.00
17635;BME280;8936;49.010;12.120;2022-09-27T05:48:09;96095.91;;;14.17;100.00
17635;BME280;8936;49.010;12.120;2022-09-27T05:50:36;96096.94;;;14.25;100.00
17635;BME280;8936;49.010;12.120;2022-09-27T05:53:03;96091.63;;;14.16;100.00
17635;BME280;8936;49.010;12.120;2022-09-27T05:55:29;96107.31;;;14.14;100.00
17635;BME280;8936;49.010;12.120;2022-09-27T05:57:56;96111.75;;;14.10;100.00
17635;BME280;8936;49.010;12.120;2022-09-27T06:00:24;96117.19;;;14.01;100.00
17635;BME280;8936;49.010;12.120;2022-09-27T06:02:54;96121.38;;;13.90;100.00
17635;BME280;8936;49.010;12.120;2022-09-27T06:05:21;96113.97;;;13.87;100.00
17635;BME280;8936;49.010;12.120;2022-09-27T06:07:47;96117.84;;;13.98;100.00
17635;BME280;8936;49.010;12.120;2022-09-27T06:10:14;96120.78;;;13.85;100.00
17635;BME280;8936;49.010;12.120;2022-09-27T06:12:41;96131.78;;;13.92;100.00
17635;BME280;8936;49.010;12.120;2022-09-27T06:15:07;96134.50;;;13.83;100.00
17635;BME280;8936;49.010;12.120;2022-09-27T06:17:35;96128.44;;;13.95;100.00
17635;BME280;8936;49.010;12.120;2022-09-27T06:20:01;96133.03;;;13.94;100.00
17635;BME280;8936;49.010;12.120;2022-09-27T06:22:28;96131.78;;;13.92;100.00
17635;BME280;8936;49.010;12.120;2022-09-27T06:24:55;96136.56;;;13.86;100.00
17635;BME280;8936;49.010;12.120;2022-09-27T06:27:21;96142.66;;;13.95;100.00
17635;BME280;8936;49.010;12.120;2022-09-27T06:29:47;96142.91;;;13.82;100.00
17635;BME280;8936;49.010;12.120;2022-09-27T06:32:14;96143.75;;;13.94;100.00
17635;BME280;8936;49.010;12.120;2022-09-27T06:34:41;96157.91;;;14.03;100.00
17635;BME280;8936;49.010;12.120;2022-09-27T06:37:08;96161.50;;;14.07;100.00
17635;BME280;8936;49.010;12.120;2022-09-27T06:39:34;96163.66;;;14.14;100.00
17635;BME280;8936;49.010;12.120;2022-09-27T06:42:00;96169.34;;;14.13;100.00
17635;BME280;8936;49.010;12.120;2022-09-27T06:44:27;96174.63;;;13.80;100.00
17635;BME280;8936;49.010;12.120;2022-09-27T06:46:53;96173.66;;;14.05;100.00
17635;BME280;8936;49.010;12.120;2022-09-27T06:49:20;96175.81;;;14.12;100.00
17635;BME280;8936;49.010;12.120;2022-09-27T06:51:48;96177.47;;;14.04;100.00
17635;BME280;8936;49.010;12.120;2022-09-27T06:54:14;96187.22;;;14.08;100.00
17635;BME280;8936;49.010;12.120;2022-09-27T06:56:41;96189.75;;;14.05;100.00
17635;BME280;8936;49.010;12.120;2022-09-27T06:59:07;96190.91;;;14.04;100.00
17635;BME280;8936;49.010;12.120;2022-09-27T07:01:51;96189.88;;;14.17;100.00
17635;BME280;8936;49.010;12.120;2022-09-27T07:04:17;96202.66;;;14.12;100.00
17635;BME280;8936;49.010;12.120;2022-09-27T07:06:44;96188.59;;;13.94;100.00
17635;BME280;8936;49.010;12.120;2022-09-27T07:09:12;96193.31;;;13.97;100.00
17635;BME280;8936;49.010;12.120;2022-09-27T07:11:38;96200.78;;;14.12;100.00
17635;BME280;8936;49.010;12.120;2022-09-27T07:14:07;96198.88;;;14.13;100.00
17635;BME280;8936;49.010;12.120;2022-09-27T07:16:34;96192.34;;;14.01;100.00
17635;BME280;8936;49.010;12.120;2022-09-27T07:19:01;96204.75;;;13.85;100.00
17635;BME280;8936;49.010;12.120;2022-09-27T07:21:27;96210.56;;;13.87;100.00
17635;BME280;8936;49.010;12.120;2022-09-27T07:23:54;96212.50;;;14.07;100.00
17635;BME280;8936;49.010;12.120;2022-09-27T07:26:21;96209.31;;;14.14;100.00
17635;BME280;8936;49.010;12.120;2022-09-27T07:28:48;96211.00;;;14.19;100.00
17635;BME280;8936;49.010;12.120;2022-09-27T07:31:14;96217.97;;;13.90;100.00
17635;BME280;8936;49.010;12.120;2022-09-27T07:33:41;96222.59;;;14.11;100.00
17635;BME280;8936;49.010;12.120;2022-09-27T07:36:07;96209.88;;;14.20;100.00
17635;BME280;8936;49.010;12.120;2022-09-27T07:38:34;96222.59;;;14.11;100.00
17635;BME280;8936;49.010;12.120;2022-09-27T07:41:04;96225.00;;;14.24;100.00
17635;BME280;8936;49.010;12.120;2022-09-27T07:43:31;96219.97;;;14.23;100.00
17635;BME280;8936;49.010;12.120;2022-09-27T07:45:58;96218.66;;;14.29;100.00
17635;BME280;8936;49.010;12.120;2022-09-27T07:48:24;96234.78;;;14.29;100.00
17635;BME280;8936;49.010;12.120;2022-09-27T07:50:51;96218.91;;;14.15;100.00
17635;BME280;8936;49.010;12.120;2022-09-27T07:53:17;96225.59;;;14.30;100.00
17635;BME280;8936;49.010;12.120;2022-09-27T07:55:48;96224.13;;;14.12;100.00
17635;BME280;8936;49.010;12.120;2022-09-27T07:58:15;96231.28;;;13.78;100.00
17635;BME280;8936;49.010;12.120;2022-09-27T08:00:42;96229.50;;;13.91;100.00
17635;BME280;8936;49.010;12.120;2022-09-27T08:03:09;96239.00;;;14.09;100.00
17635;BME280;8936;49.010;12.120;2022-09-27T08:05:38;96238.78;;;13.93;100.00
17635;BME280;8936;49.010;12.120;2022-09-27T08:08:04;96241.38;;;14.11;100.00
17635;BME280;8936;49.010;12.120;2022-09-27T08:10:31;96242.63;;;13.84;100.00
17635;BME280;8936;49.010;12.120;2022-09-27T08:12:58;96253.22;;;14.10;100.00
17635;BME280;8936;49.010;12.120;2022-09-27T08:15:27;96252.13;;;14.11;100.00
17635;BME280;8936;49.010;12.120;2022-09-27T08:17:55;96254.41;;;14.21;100.00
17635;BME280;8936;49.010;12.120;2022-09-27T08:20:21;96252.63;;;14.04;100.00
17635;BME280;8936;49.010;12.120;2022-09-27T08:22:48;96263.41;;;13.95;100.00
17635;BME280;8936;49.010;12.120;2022-09-27T08:25:14;96272.19;;;13.75;100.00
17635;BME280;8936;49.010;12.120;2022-09-27T08:27:40;96264.56;;;13.86;100.00
17635;BME280;8936;49.010;12.120;2022-09-27T08:30:07;96271.78;;;13.94;100.00
17635;BME280;8936;49.010;12.120;2022-09-27T08:32:34;96266.53;;;13.68;100.00
17635;BME280;8936;49.010;12.120;2022-09-27T08:35:03;96271.53;;;13.78;100.00
17635;BME280;8936;49.010;12.120;2022-09-27T08:37:31;96276.59;;;13.80;100.00
17635;BME280;8936;49.010;12.120;2022-09-27T08:39:57;96276.75;;;13.75;100.00
17635;BME280;8936;49.010;12.120;2022-09-27T08:42:27;96278.97;;;14.02;100.00
17635;BME280;8936;49.010;12.120;2022-09-27T08:44:58;96293.63;;;14.13;100.00
17635;BME280;8936;49.010;12.120;2022-09-27T08:47:26;96287.66;;;14.07;100.00
17635;BME280;8936;49.010;12.120;2022-09-27T08:49:56;96289.34;;;13.83;100.00
17635;BME280;8936;49.010;12.120;2022-09-27T08:52:26;96299.47;;;13.77;100.00
17635;BME280;8936;49.010;12.120;2022-09-27T08:54:55;96301.63;;;13.92;100.00
17635;BME280;8936;49.010;12.120;2022-09-27T08:57:23;96301.09;;;13.99;100.00
17635;BME280;8936;49.010;12.120;2022-09-27T08:59:52;96298.31;;;13.87;100.00
17635;BME280;8936;49.010;12.120;2022-09-27T09:02:20;96292.19;;;13.86;100.00
17635;BME280;8936;49.010;12.120;2022-09-27T09:04:49;96295.63;;;13.95;100.00
17635;BME280;8936;49.010;12.120;2022-09-27T09:07:21;96300.38;;;14.19;100.00
17635;BME280;8936;49.010;12.120;2022-09-27T09:09:53;96296.06;;;14.27;100.00
17635;BME280;8936;49.010;12.120;2022-09-27T09:12:26;96302.38;;;14.01;100.00
17635;BME280;8936;49.010;12.120;2022-09-27T09:15:15;96303.13;;;14.11;100.00
17635;BME280;8936;49.010;12.120;2022-09-27T09:17:56;96311.19;;;14.02;100.00
17635;BME280;8936;49.010;12.120;2022-09-27T09:20:28;96312.38;;;13.92;100.00
17635;BME280;8936;49.010;12.120;2022-09-27T09:23:01;96310.00;;;14.20;100.00
17635;BME280;8936;49.010;12.120;2022-09-27T09:25:35;96310.50;;;13.84;100.00
17635;BME280;8936;49.010;12.120;2022-09-27T09:28:08;96323.66;;;14.06;100.00
17635;BME280;8936;49.010;12.120;2022-09-27T09:30:39;96311.56;;;13.92;100.00
17635;BME280;8936;49.010;12.120;2022-09-27T09:33:14;96319.31;;;13.85;100.00
17635;BME280;8936;49.010;12.120;2022-09-27T09:35:44;96322.34;;;14.13;100.00
17635;BME280;8936;49.010;12.120;2022-09-27T09:38:14;96323.88;;;14.22;100.00
17635;BME280;8936;49.010;12.120;2022-09-27T09:40:45;96340.25;;;14.38;100.00
17635;BME280;8936;49.010;12.120;2022-09-27T09:43:14;96332.41;;;13.95;100.00
17635;BME280;8936;49.010;12.120;2022-09-27T09:45:42;96335.41;;;14.23;100.00
17635;BME280;8936;49.010;12.120;2022-09-27T09:48:12;96327.38;;;14.23;100.00
17635;BME280;8936;49.010;12.120;2022-09-27T09:50:43;96330.16;;;14.35;100.00
17635;BME280;8936;49.010;12.120;2022-09-27T09:53:11;96323.38;;;14.29;100.00
17635;BME280;8936;49.010;12.120;2022-09-27T09:55:39;96318.13;;;14.41;100.00
17635;BME280;8936;49.010;12.120;2022-09-27T09:58:12;96326.38;;;14.36;100.00
17635;BME280;8936;49.010;12.120;2022-09-27T10:00:44;96328.75;;;14.29;100.00
17635;BME280;8936;49.010;12.120;2022-09-27T10:03:12;96323.03;;;14.39;100.00
17635;BME280;8936;49.010;12.120;2022-09-27T10:05:39;96333.44;;;14.40;100.00
17635;BME280;8936;49.010;12.120;2022-09-27T10:08:10;96326.50;;;14.31;100.00
17635;BME280;8936;49.010;12.120;2022-09-27T10:10:37;96315.63;;;14.36;100.00
17635;BME280;8936;49.010;12.120;2022-09-27T10:13:07;96312.41;;;14.42;100.00
17635;BME280;8936;49.010;12.120;2022-09-27T10:15:39;96314.09;;;14.26;100.00
17635;BME280;8936;49.010;12.120;2022-09-27T10:18:07;96302.81;;;14.41;100.00
17635;BME280;8936;49.010;12.120;2022-09-27T10:20:38;96309.06;;;14.45;100.00
17635;BME280;8936;49.010;12.120;2022-09-27T10:23:10;96311.16;;;14.40;100.00
17635;BME280;8936;49.010;12.120;2022-09-27T10:25:44;96313.25;;;14.64;100.00
17635;BME280;8936;49.010;12.120;2022-09-27T10:28:13;96319.06;;;14.66;100.00
17635;BME280;8936;49.010;12.120;2022-09-27T10:30:55;96327.03;;;14.53;100.00
17635;BME280;8936;49.010;12.120;2022-09-27T10:33:22;96329.81;;;14.86;100.00
17635;BME280;8936;49.010;12.120;2022-09-27T10:35:48;96322.28;;;15.00;100.00
17635;BME280;8936;49.010;12.120;2022-09-27T10:38:19;96319.59;;;15.00;100.00
17635;BME280;8936;49.010;12.120;2022-09-27T10:40:46;96306.09;;;14.88;100.00
17635;BME280;8936;49.010;12.120;2022-09-27T10:43:21;96311.03;;;14.98;100.00
17635;BME280;8936;49.010;12.120;2022-09-27T10:45:49;96313.06;;;15.01;100.00
17635;BME280;8936;49.010;12.120;2022-09-27T10:48:19;96302.00;;;15.03;100.00
17635;BME280;8936;49.010;12.120;2022-09-27T10:50:53;96318.00;;;14.99;100.00
17635;BME280;8936;49.010;12.120;2022-09-27T10:53:21;96320.81;;;15.03;100.00
17635;BME280;8936;49.010;12.120;2022-09-27T10:55:48;96330.78;;;15.02;100.00
17635;BME280;8936;49.010;12.120;2022-09-27T10:58:17;96324.44;;;14.86;100.00
17635;BME280;8936;49.010;12.120;2022-09-27T11:00:44;96338.06;;;14.81;100.00
17635;BME280;8936;49.010;12.120;2022-09-27T11:03:20;96326.03;;;14.67;100.00
17635;BME280;8936;49.010;12.120;2022-09-27T11:05:49;96353.13;;;14.53;100.00
17635;BME280;8936;49.010;12.120;2022-09-27T11:08:23;96363.53;;;14.54;100.00
17635;BME280;8936;49.010;12.120;2022-09-27T11:11:05;96357.84;;;14.56;100.00
17635;BME280;8936;49.010;12.120;2022-09-27T11:13:32;96341.84;;;14.59;100.00
17635;BME280;8936;49.010;12.120;2022-09-27T11:18:43;96347.81;;;14.65;100.00
17635;BME280;8936;49.010;12.120;2022-09-27T11:21:16;96339.91;;;14.69;100.00
17635;BME280;8936;49.010;12.120;2022-09-27T11:23:52;96361.03;;;14.79;100.00
17635;BME280;8936;49.010;12.120;2022-09-27T11:26:26;96338.59;;;14.75;100.00
17635;BME280;8936;49.010;12.120;2022-09-27T11:28:57;96348.97;;;14.85;100.00
17635;BME280;8936;49.010;12.120;2022-09-27T11:31:29;96355.00;;;14.82;100.00
17635;BME280;8936;49.010;12.120;2022-09-27T11:34:06;96346.59;;;14.83;100.00
17635;BME280;8936;49.010;12.120;2022-09-27T11:36:42;96346.25;;;14.64;100.00
17635;BME280;8936;49.010;12.120;2022-09-27T11:39:11;96347.81;;;14.65;100.00
17635;BME280;8936;49.010;12.120;2022-09-27T11:41:49;96352.88;;;14.67;100.00
17635;BME280;8936;49.010;12.120;2022-09-27T11:47:04;96322.34;;;14.50;100.00
17635;BME280;8936;49.010;12.120;2022-09-27T11:52:41;96337.53;;;14.67;100.00
17635;BME280;8936;49.010;12.120;2022-09-27T11:55:14;96332.94;;;14.68;100.00
17635;BME280;8936;49.010;12.120;2022-09-27T11:57:45;96333.81;;;14.80;100.00
17635;BME280;8936;49.010;12.120;2022-09-27T12:00:16;96343.31;;;14.98;100.00
17635;BME280;8936;49.010;12.120;2022-09-27T12:03:01;96317.34;;;15.02;100.00
17635;BME280;8936;49.010;12.120;2022-09-27T12:05:34;96312.56;;;14.87;100.00
17635;BME280;8936;49.010;12.120;2022-09-27T12:08:06;96318.66;;;14.96;100.00
17635;BME280;8936;49.010;12.120;2022-09-27T12:10:34;96316.06;;;14.88;100.00
17635;BME280;8936;49.010;12.120;2022-09-27T12:13:03;96321.56;;;14.91;100.00
17635;BME280;8936;49.010;12.120;2022-09-27T12:15:31;96327.38;;;14.93;100.00
17635;BME280;8936;49.010;12.120;2022-09-27T12:18:01;96322.75;;;15.14;100.00
17635;BME280;8936;49.010;12.120;2022-09-27T12:20:33;96325.38;;;15.23;100.00
17635;BME280;8936;49.010;12.120;2022-09-27T12:23:01;96328.88;;;15.36;100.00
17635;BME280;8936;49.010;12.120;2022-09-27T12:25:30;96316.19;;;15.24;100.00
17635;BME280;8936;49.010;12.120;2022-09-27T12:28:00;96324.31;;;15.36;100.00
17635;BME280;8936;49.010;12.120;2022-09-27T12:30:29;96315.97;;;15.29;100.00
17635;BME280;8936;49.010;12.120;2022-09-27T12:32:56;96317.25;;;15.11;100.00
17635;BME280;8936;49.010;12.120;2022-09-27T12:35:26;96316.50;;;15.23;100.00
17635;BME280;8936;49.010;12.120;2022-09-27T12:37:56;96318.44;;;15.01;100.00
17635;BME280;8936;49.010;12.120;2022-09-27T12:40:25;96304.81;;;15.06;100.00
17635;BME280;8936;49.010;12.120;2022-09-27T12:42:56;96328.81;;;15.11;100.00
17635;BME280;8936;49.010;12.120;2022-09-27T12:45:26;96321.41;;;15.08;100.00
17635;BME280;8936;49.010;12.120;2022-09-27T12:48:01;96323.25;;;14.75;100.00
17635;BME280;8936;49.010;12.120;2022-09-27T12:50:33;96300.50;;;14.93;100.00
17635;BME280;8936;49.010;12.120;2022-09-27T12:53:01;96313.56;;;15.03;100.00
17635;BME280;8936;49.010;12.120;2022-09-27T12:55:36;96313.94;;;14.93;100.00
17635;BME280;8936;49.010;12.120;2022-09-27T12:58:15;96312.41;;;15.04;100.00
17635;BME280;8936;49.010;12.120;2022-09-27T13:00:42;96305.63;;;14.86;100.00
17635;BME280;8936;49.010;12.120;2022-09-27T13:03:15;96313.69;;;15.07;100.00
17635;BME280;8936;49.010;12.120;2022-09-27T13:08:38;96316.19;;;14.91;100.00
17635;BME280;8936;49.010;12.120;2022-09-27T13:11:11;96315.53;;;14.94;100.00
17635;BME280;8936;49.010;12.120;2022-09-27T13:13:43;96321.75;;;15.07;100.00